EGDY METAR and TAF | Updated Today

EGDY METAR

RNAS Yeovilton

Observation time: 16 min. ago

EGDY 061950Z 20008KT 9999 FEW030 13/11 Q1026 NOSIG RMK BLU BLU

Need help? Read our tutorial on how to read METARs or read the parsed version below.

RNAS Yeovilton (EGDY) METAR

  • Weather conditions on Thu, 06 Oct 2022 19:50:00 +0000 (16 min. ago):
  • Present conditions: Dry
  • Clouds: A few at 914 meters
  • Visibility: Greater than 10 km
  • Wind: 200 degrees at 8 knots
  • Temperature: 13 celsius
  • Dew point: 11 celsius
  • Pressure: 1026 millibars
  • Remarks: BLU BLU


Useful to know...

EGDY TAF

RNAS Yeovilton

TAF EGDY 061107Z 0612/0621 22007KT 9999 SCT030
Observation time: 8:59 hr. ago
Need help? Read our tutorial on how to read TAFs or read the parsed version below.

Parsed version of TAF for RNAS Yeovilton (EGDY)

  • From 06 October at 12:00 UTC, to day 06 of the month at 21:00 UTC
  • Clouds: Scattered at 914 meters
  • Visibility: Greater than 10 km
  • Wind: 220 degrees at 7